Time;durP1;ratioP1;P1;durP2;ratioP2;P2;SDS_P1;SDS_P2;PMS_P1;PMS_P2;Temp;Humidity;BMP_temperature;BMP_pressure;BME280_temperature;BME280_humidity;BME280_pressure;Samples;Min_cycle;Max_cycle;Signal;HPM_P1;HPM_P2
2023/10/26 00:01:27;;;;;;;22.70;16.58;;;10.70;99.90;;;;;;6178405;23;20389;-83
2023/10/26 00:03:52;;;;;;;24.38;15.80;;;10.70;99.90;;;;;;6204226;23;20015;-83
2023/10/26 00:06:18;;;;;;;23.63;16.50;;;10.80;99.90;;;;;;6178098;23;20015;-83
2023/10/26 00:08:44;;;;;;;26.17;16.10;;;10.80;99.90;;;;;;6204178;23;20102;-83
2023/10/26 00:11:10;;;;;;;24.85;15.77;;;10.80;99.90;;;;;;6200332;23;20012;-83
2023/10/26 00:13:36;;;;;;;23.35;15.57;;;10.80;99.90;;;;;;6179393;23;20020;-83
2023/10/26 00:16:01;;;;;;;24.25;16.05;;;10.70;99.90;;;;;;6177616;23;20019;-83
2023/10/26 00:18:27;;;;;;;21.45;16.25;;;10.60;99.90;;;;;;6178971;23;20020;-83
2023/10/26 00:20:57;;;;;;;25.50;15.57;;;10.60;99.90;;;;;;6177470;23;20426;-83
2023/10/26 00:23:23;;;;;;;23.13;15.15;;;10.50;99.90;;;;;;6178653;23;20346;-83
2023/10/26 00:25:49;;;;;;;21.25;15.18;;;10.60;99.90;;;;;;6200809;23;20012;-83
2023/10/26 00:28:15;;;;;;;24.95;15.27;;;10.60;99.90;;;;;;6178208;23;20135;-83
2023/10/26 00:30:41;;;;;;;21.60;14.75;;;10.50;99.90;;;;;;6178015;23;20019;-83
2023/10/26 00:33:06;;;;;;;25.15;15.23;;;10.50;99.90;;;;;;6179166;23;20012;-83
2023/10/26 00:35:32;;;;;;;23.70;16.30;;;10.60;99.90;;;;;;6178172;23;20457;-84
2023/10/26 00:37:58;;;;;;;22.35;16.20;;;10.60;99.90;;;;;;6178874;23;20289;-83
2023/10/26 00:40:23;;;;;;;25.90;16.27;;;10.60;99.90;;;;;;6175496;23;20107;-83
2023/10/26 00:42:49;;;;;;;24.08;17.10;;;10.60;99.90;;;;;;6202505;23;20072;-82
2023/10/26 00:45:15;;;;;;;23.58;16.75;;;10.50;99.90;;;;;;6177504;23;20019;-83
2023/10/26 00:47:41;;;;;;;23.45;16.50;;;10.40;99.90;;;;;;6177816;23;20008;-83
2023/10/26 00:50:08;;;;;;;26.92;17.75;;;10.40;99.90;;;;;;6203453;23;20067;-83
2023/10/26 00:52:36;;;;;;;29.85;18.35;;;10.60;99.90;;;;;;6178717;23;20077;-83
2023/10/26 00:55:04;;;;;;;23.48;18.35;;;10.50;99.90;;;;;;6200994;23;20034;-83
2023/10/26 00:57:30;;;;;;;28.05;19.60;;;10.50;99.90;;;;;;6177231;23;20016;-83
2023/10/26 00:59:58;;;;;;;34.45;19.75;;;10.40;99.90;;;;;;6178073;23;20346;-83
2023/10/26 01:02:25;;;;;;;30.63;19.75;;;10.50;99.90;;;;;;6177480;23;20051;-83
2023/10/26 01:04:50;;;;;;;35.53;20.13;;;10.50;99.90;;;;;;6203129;23;20009;-83
2023/10/26 01:07:16;;;;;;;31.70;20.13;;;10.60;99.90;;;;;;6178074;23;20035;-83
2023/10/26 01:09:42;;;;;;;33.70;21.02;;;10.60;99.90;;;;;;6179056;23;20349;-83
2023/10/26 01:12:09;;;;;;;32.22;21.55;;;10.50;99.90;;;;;;6174015;23;20020;-83
2023/10/26 01:14:35;;;;;;;33.97;22.98;;;10.60;99.90;;;;;;6203085;23;20934;-83
2023/10/26 01:17:01;;;;;;;34.10;24.80;;;10.60;99.90;;;;;;6177483;23;20018;-83
2023/10/26 01:19:40;;;;;;;38.70;25.15;;;10.60;99.90;;;;;;6203489;23;20087;-83
2023/10/26 01:22:06;;;;;;;39.20;26.10;;;10.60;99.90;;;;;;6201816;23;20086;-83
2023/10/26 01:24:32;;;;;;;45.13;28.27;;;10.70;99.90;;;;;;6177255;23;20015;-83
2023/10/26 01:26:57;;;;;;;44.05;27.48;;;10.70;99.90;;;;;;6174841;23;20437;-83
2023/10/26 01:29:23;;;;;;;49.03;29.98;;;10.60;99.90;;;;;;6203018;23;20104;-83
2023/10/26 01:31:49;;;;;;;46.08;30.38;;;10.60;99.90;;;;;;6176968;23;20307;-83
2023/10/26 01:34:14;;;;;;;50.58;30.65;;;10.60;99.90;;;;;;6178403;23;20065;-83
2023/10/26 01:36:40;;;;;;;46.78;30.98;;;10.70;99.90;;;;;;6202463;23;20070;-83
2023/10/26 01:39:06;;;;;;;51.03;33.00;;;10.70;99.90;;;;;;6203235;23;20015;-83
2023/10/26 01:41:32;;;;;;;55.17;31.83;;;10.70;99.90;;;;;;6199248;23;20066;-83
2023/10/26 01:43:59;;;;;;;47.10;31.77;;;10.70;99.90;;;;;;6177300;23;20004;-83
2023/10/26 01:46:25;;;;;;;57.15;33.00;;;10.80;99.90;;;;;;6203078;23;20144;-83
2023/10/26 01:48:51;;;;;;;53.67;32.88;;;10.80;99.90;;;;;;6203133;23;20082;-83
2023/10/26 01:51:17;;;;;;;56.05;34.58;;;10.80;99.90;;;;;;6202936;23;20436;-82
2023/10/26 01:53:42;;;;;;;55.28;34.08;;;10.80;99.90;;;;;;6178181;23;20016;-83
2023/10/26 01:56:08;;;;;;;51.90;34.63;;;10.80;99.90;;;;;;6199343;23;20054;-83
2023/10/26 01:58:34;;;;;;;57.45;34.83;;;10.70;99.90;;;;;;6177866;23;20016;-83
2023/10/26 02:01:00;;;;;;;60.30;34.45;;;10.70;99.90;;;;;;6177212;23;20012;-83
2023/10/26 02:03:26;;;;;;;54.63;34.38;;;10.70;99.90;;;;;;6177294;23;20018;-83
2023/10/26 02:05:51;;;;;;;52.65;34.42;;;10.70;99.90;;;;;;6201978;23;20016;-83
2023/10/26 02:08:17;;;;;;;52.70;33.83;;;10.70;99.90;;;;;;6177742;23;20015;-83
2023/10/26 02:10:43;;;;;;;57.67;35.63;;;10.70;99.90;;;;;;6200119;23;20265;-83
2023/10/26 02:13:09;;;;;;;56.25;35.28;;;10.70;99.90;;;;;;6204177;23;20044;-83
2023/10/26 02:15:35;;;;;;;57.60;34.85;;;10.70;99.90;;;;;;6204278;23;20078;-83
2023/10/26 02:18:01;;;;;;;57.13;34.75;;;10.70;99.90;;;;;;6179814;23;20019;-83
2023/10/26 02:20:27;;;;;;;60.28;33.40;;;10.70;99.90;;;;;;6178573;23;20027;-83
2023/10/26 02:22:52;;;;;;;59.58;33.25;;;10.70;99.90;;;;;;6204862;23;20019;-83
2023/10/26 02:25:20;;;;;;;54.40;32.90;;;10.70;99.90;;;;;;6202706;23;20027;-83
2023/10/26 02:27:46;;;;;;;52.53;32.28;;;10.70;99.90;;;;;;6203875;23;20027;-83
2023/10/26 02:30:12;;;;;;;53.80;32.90;;;10.70;99.90;;;;;;6179113;23;20240;-83
2023/10/26 02:32:39;;;;;;;53.42;31.98;;;10.70;99.90;;;;;;6204280;23;20185;-83
2023/10/26 02:35:05;;;;;;;54.22;32.67;;;10.80;99.90;;;;;;6179247;23;20023;-83
2023/10/26 02:37:33;;;;;;;59.42;33.03;;;10.70;99.90;;;;;;6204526;23;20352;-83
2023/10/26 02:39:59;;;;;;;56.53;33.35;;;10.70;99.90;;;;;;6177775;23;20016;-83
2023/10/26 02:42:24;;;;;;;57.45;33.50;;;10.70;99.90;;;;;;6178421;23;20016;-83
2023/10/26 02:44:50;;;;;;;49.55;31.40;;;10.70;99.90;;;;;;6204862;23;20008;-83
2023/10/26 02:47:16;;;;;;;58.40;33.72;;;10.70;99.90;;;;;;6179952;23;20016;-83
2023/10/26 02:49:41;;;;;;;48.80;30.38;;;10.70;99.90;;;;;;6180141;23;20375;-83
2023/10/26 02:52:07;;;;;;;52.03;32.75;;;10.70;99.90;;;;;;6203015;23;20099;-82
2023/10/26 02:54:33;;;;;;;61.20;33.85;;;10.60;99.90;;;;;;6180191;23;20217;-83
2023/10/26 02:56:58;;;;;;;46.55;29.52;;;10.60;99.90;;;;;;6200485;23;20035;-83
2023/10/26 02:59:24;;;;;;;53.20;31.88;;;10.50;99.90;;;;;;6180104;23;20453;-83
2023/10/26 03:01:50;;;;;;;47.90;31.60;;;10.50;99.90;;;;;;6178262;23;20016;-83
2023/10/26 03:04:16;;;;;;;55.03;31.27;;;10.50;99.90;;;;;;6179692;23;20484;-83
2023/10/26 03:06:41;;;;;;;51.50;32.17;;;10.60;99.90;;;;;;6178265;23;20008;-83
2023/10/26 03:09:13;;;;;;;50.63;31.35;;;10.60;99.90;;;;;;6179906;23;20016;-83
2023/10/26 03:11:42;;;;;;;46.13;30.08;;;10.60;99.90;;;;;;6175948;23;20008;-83
2023/10/26 03:14:07;;;;;;;53.40;32.08;;;10.50;99.90;;;;;;6204461;23;20008;-83
2023/10/26 03:16:33;;;;;;;54.92;32.42;;;10.60;99.90;;;;;;6178686;23;20535;-83
2023/10/26 03:18:59;;;;;;;51.55;30.52;;;10.50;99.90;;;;;;6204490;23;20426;-82
2023/10/26 03:21:25;;;;;;;46.92;29.88;;;10.60;99.90;;;;;;6203098;23;20018;-83
2023/10/26 03:23:53;;;;;;;52.22;31.73;;;10.60;99.90;;;;;;6204226;23;20024;-83
2023/10/26 03:26:20;;;;;;;51.28;30.30;;;10.60;99.90;;;;;;6175846;23;20043;-83
2023/10/26 03:28:48;;;;;;;51.22;30.02;;;10.50;99.90;;;;;;6180209;23;20094;-83
2023/10/26 03:31:14;;;;;;;48.58;29.75;;;10.60;99.90;;;;;;6178438;23;20017;-83
2023/10/26 03:33:39;;;;;;;49.72;30.63;;;10.60;99.90;;;;;;6204593;23;20348;-83
2023/10/26 03:36:15;;;;;;;49.00;30.38;;;10.70;99.90;;;;;;6178342;23;20016;-83
2023/10/26 03:38:42;;;;;;;49.35;30.55;;;10.60;99.90;;;;;;6204190;23;20016;-83
2023/10/26 03:41:08;;;;;;;51.72;31.27;;;10.60;99.90;;;;;;6175505;23;20479;-83
2023/10/26 03:43:34;;;;;;;55.95;30.80;;;10.70;99.90;;;;;;6204385;23;20048;-82
2023/10/26 03:45:59;;;;;;;55.00;32.90;;;10.60;99.90;;;;;;6178430;23;20016;-83
2023/10/26 03:48:25;;;;;;;58.58;32.40;;;10.60;99.90;;;;;;6203972;23;20211;-83
2023/10/26 03:50:50;;;;;;;52.97;32.58;;;10.60;99.90;;;;;;6178584;23;20065;-83
2023/10/26 03:53:16;;;;;;;54.65;32.50;;;10.50;99.90;;;;;;6179242;23;20164;-83
2023/10/26 03:55:42;;;;;;;51.40;31.73;;;10.50;99.90;;;;;;6200935;23;20054;-83
2023/10/26 03:58:08;;;;;;;56.15;31.35;;;10.40;99.90;;;;;;6203421;23;20023;-83
2023/10/26 04:00:33;;;;;;;53.70;32.17;;;10.50;99.90;;;;;;6203199;23;20535;-83
2023/10/26 04:02:59;;;;;;;58.75;33.13;;;10.40;99.90;;;;;;6203067;23;20020;-83
2023/10/26 04:05:24;;;;;;;55.97;32.30;;;10.40;99.90;;;;;;6178021;23;20364;-84
2023/10/26 04:07:50;;;;;;;55.15;31.35;;;10.40;99.90;;;;;;6203519;23;20797;-83
2023/10/26 04:10:17;;;;;;;52.10;31.92;;;10.40;99.90;;;;;;6175525;23;20272;-83
2023/10/26 04:12:43;;;;;;;55.95;30.88;;;10.30;99.90;;;;;;6203308;23;20343;-83
2023/10/26 04:15:10;;;;;;;50.35;31.42;;;10.50;99.90;;;;;;6178158;23;20023;-83
2023/10/26 04:17:35;;;;;;;55.22;31.77;;;10.40;99.90;;;;;;6203416;23;20081;-83
2023/10/26 04:20:01;;;;;;;56.80;32.83;;;10.40;99.90;;;;;;6178309;23;20322;-82
2023/10/26 04:22:27;;;;;;;53.65;31.52;;;10.40;99.90;;;;;;6202797;23;20035;-83
2023/10/26 04:24:53;;;;;;;58.30;33.38;;;10.50;99.90;;;;;;6202625;23;20016;-83
2023/10/26 04:27:19;;;;;;;49.20;30.92;;;10.50;99.90;;;;;;6201569;23;20460;-83
2023/10/26 04:29:45;;;;;;;49.65;31.60;;;10.50;99.90;;;;;;6178728;23;20074;-83
2023/10/26 04:32:11;;;;;;;51.97;31.70;;;10.40;99.90;;;;;;6177433;23;20016;-83
2023/10/26 04:34:43;;;;;;;52.92;32.30;;;10.40;99.90;;;;;;6178232;23;20023;-83
2023/10/26 04:37:09;;;;;;;49.70;31.88;;;10.30;99.90;;;;;;6178839;23;20095;-83
2023/10/26 04:39:35;;;;;;;53.67;33.72;;;10.50;99.90;;;;;;6178997;23;20047;-83
2023/10/26 04:42:01;;;;;;;50.65;32.85;;;10.30;99.90;;;;;;6199156;23;20392;-83
2023/10/26 04:44:26;;;;;;;50.92;32.67;;;10.40;99.90;;;;;;6204228;23;20012;-83
2023/10/26 04:46:52;;;;;;;52.17;32.33;;;10.30;99.90;;;;;;6177836;23;20012;-83
2023/10/26 04:49:17;;;;;;;48.30;30.95;;;10.30;99.90;;;;;;6178931;23;20016;-83
2023/10/26 04:51:43;;;;;;;53.75;33.35;;;10.20;99.90;;;;;;6177876;23;20337;-83
2023/10/26 04:54:09;;;;;;;56.13;34.13;;;10.20;99.90;;;;;;6203305;23;20016;-83
2023/10/26 04:56:34;;;;;;;443.83;40.83;;;10.30;99.90;;;;;;6199112;23;20160;-83
2023/10/26 04:59:00;;;;;;;66.82;26.60;;;10.30;99.90;;;;;;6203256;23;20012;-83
2023/10/26 05:01:26;;;;;;;48.85;31.25;;;10.10;99.90;;;;;;6202957;23;20039;-82
2023/10/26 05:03:53;;;;;;;50.75;31.90;;;10.20;99.90;;;;;;6178557;23;20090;-83
2023/10/26 05:06:18;;;;;;;51.35;32.10;;;10.10;99.90;;;;;;6178027;23;20019;-82
2023/10/26 05:08:46;;;;;;;40.58;26.65;;;10.10;99.90;;;;;;6203357;23;20012;-83
2023/10/26 05:11:12;;;;;;;44.00;27.80;;;10.20;99.90;;;;;;6173602;23;20120;-82
2023/10/26 05:13:38;;;;;;;65.05;25.60;;;10.10;99.90;;;;;;6178168;23;20028;-82
2023/10/26 05:16:04;;;;;;;180.63;29.95;;;10.20;99.90;;;;;;6201326;23;20240;-83
2023/10/26 05:18:30;;;;;;;34.60;23.42;;;10.10;99.90;;;;;;6178285;23;20016;-83
2023/10/26 05:20:56;;;;;;;86.18;31.10;;;10.10;99.90;;;;;;6177164;23;20031;-82
2023/10/26 05:23:21;;;;;;;63.05;25.92;;;9.90;99.90;;;;;;6177846;23;20296;-83
2023/10/26 05:25:48;;;;;;;186.00;32.42;;;9.90;99.90;;;;;;6199543;23;20532;-83
2023/10/26 05:28:14;;;;;;;66.93;28.90;;;10.00;99.90;;;;;;6177126;23;20051;-83
2023/10/26 05:30:40;;;;;;;84.88;33.60;;;10.10;99.90;;;;;;6177180;23;20054;-83
2023/10/26 05:33:06;;;;;;;56.30;31.35;;;10.10;99.90;;;;;;6202724;23;20028;-83
2023/10/26 05:35:32;;;;;;;175.38;36.15;;;10.10;99.90;;;;;;6177534;23;20026;-83
2023/10/26 05:37:58;;;;;;;59.60;27.13;;;10.00;99.90;;;;;;6178097;23;20107;-83
2023/10/26 05:40:24;;;;;;;342.33;42.17;;;9.80;99.90;;;;;;6174187;23;20082;-82
2023/10/26 05:42:49;;;;;;;141.35;27.13;;;9.90;99.90;;;;;;6176535;23;20399;-82
2023/10/26 05:45:15;;;;;;;147.48;30.55;;;9.90;99.90;;;;;;6177150;23;20487;-83
2023/10/26 05:47:41;;;;;;;90.55;26.42;;;9.90;99.90;;;;;;6202701;23;20016;-83
2023/10/26 05:50:07;;;;;;;49.20;25.58;;;9.80;99.90;;;;;;6177381;23;20109;-82
2023/10/26 05:52:33;;;;;;;44.83;24.25;;;9.90;99.90;;;;;;6178304;23;20472;-82
2023/10/26 05:54:59;;;;;;;43.03;23.80;;;9.90;99.90;;;;;;6176169;23;20248;-83
2023/10/26 05:57:27;;;;;;;50.10;23.05;;;9.90;99.90;;;;;;6176576;23;20020;-83
2023/10/26 05:59:53;;;;;;;39.95;23.85;;;9.80;99.90;;;;;;6203197;23;20020;-83
2023/10/26 06:02:19;;;;;;;41.67;23.23;;;9.70;99.90;;;;;;6177497;23;20016;-83
2023/10/26 06:04:45;;;;;;;47.85;25.48;;;9.80;99.90;;;;;;6177805;23;20013;-83
2023/10/26 06:07:10;;;;;;;46.50;25.65;;;9.70;99.90;;;;;;6177869;23;20016;-83
2023/10/26 06:09:36;;;;;;;46.53;25.55;;;9.70;99.90;;;;;;6177941;23;20112;-83
2023/10/26 06:12:02;;;;;;;36.47;19.00;;;9.80;99.90;;;;;;6173545;23;20040;-83
2023/10/26 06:14:28;;;;;;;202.55;22.83;;;9.70;99.90;;;;;;6202797;23;20401;-83
2023/10/26 06:16:53;;;;;;;321.60;24.55;;;9.60;99.90;;;;;;6202854;23;20087;-83
2023/10/26 06:19:19;;;;;;;36.42;21.25;;;9.60;99.90;;;;;;6178137;23;20341;-83
2023/10/26 06:21:44;;;;;;;297.48;26.67;;;9.60;99.90;;;;;;6176680;23;20337;-83
2023/10/26 06:24:10;;;;;;;133.48;20.00;;;9.60;99.90;;;;;;6203840;23;20067;-83
2023/10/26 06:26:38;;;;;;;40.75;17.40;;;9.70;99.90;;;;;;6174093;23;20385;-83
2023/10/26 06:29:04;;;;;;;30.10;18.55;;;9.70;99.90;;;;;;6203468;23;20031;-83
2023/10/26 06:31:30;;;;;;;38.28;19.48;;;9.70;99.90;;;;;;6177293;23;20593;-82
2023/10/26 06:33:55;;;;;;;42.97;16.23;;;9.80;99.90;;;;;;6177926;23;20024;-83
2023/10/26 06:36:21;;;;;;;26.42;16.10;;;9.70;99.90;;;;;;6177229;23;20087;-83
2023/10/26 06:38:47;;;;;;;26.48;16.92;;;9.70;99.90;;;;;;6203150;23;20488;-83
2023/10/26 06:41:12;;;;;;;33.72;18.05;;;9.70;99.90;;;;;;6199321;23;20336;-83
2023/10/26 06:43:38;;;;;;;168.48;19.05;;;9.80;99.90;;;;;;6178121;23;20407;-83
2023/10/26 06:46:05;;;;;;;56.97;15.10;;;9.70;99.90;;;;;;6202428;23;20016;-83
2023/10/26 06:48:30;;;;;;;124.03;19.55;;;9.60;99.90;;;;;;6178553;23;20012;-83
2023/10/26 06:51:03;;;;;;;251.13;24.45;;;9.80;99.90;;;;;;6202364;23;20019;-83
2023/10/26 06:53:29;;;;;;;32.63;11.55;;;9.80;99.90;;;;;;6178107;23;20043;-83
2023/10/26 06:55:55;;;;;;;68.90;17.25;;;9.60;99.90;;;;;;6200150;23;20031;-83
2023/10/26 06:58:21;;;;;;;84.90;13.80;;;9.80;99.90;;;;;;6179233;23;20016;-83
2023/10/26 07:00:47;;;;;;;66.55;14.13;;;9.60;99.90;;;;;;6204102;23;20094;-83
2023/10/26 07:03:13;;;;;;;64.32;17.38;;;9.70;99.90;;;;;;6179508;23;20066;-83
2023/10/26 07:05:40;;;;;;;30.83;13.68;;;9.60;99.90;;;;;;6179129;23;20078;-83
2023/10/26 07:08:05;;;;;;;153.18;16.05;;;9.70;99.90;;;;;;6204922;23;20208;-83
2023/10/26 07:10:31;;;;;;;73.75;13.68;;;9.40;99.90;;;;;;6176686;23;20012;-83
2023/10/26 07:12:57;;;;;;;217.05;23.05;;;9.50;99.90;;;;;;6204210;23;20091;-83
2023/10/26 07:15:22;;;;;;;79.15;15.50;;;9.50;99.90;;;;;;6179398;23;20073;-83
2023/10/26 07:17:48;;;;;;;27.15;10.50;;;9.50;99.90;;;;;;6204533;23;20023;-83
2023/10/26 07:20:14;;;;;;;104.75;14.85;;;9.60;99.90;;;;;;6179108;23;20020;-83
2023/10/26 07:22:42;;;;;;;103.95;16.40;;;9.60;99.90;;;;;;6178934;23;20023;-83
2023/10/26 07:25:08;;;;;;;25.10;12.55;;;9.70;99.90;;;;;;6202575;23;20070;-82
2023/10/26 07:27:34;;;;;;;23.50;12.95;;;9.80;99.90;;;;;;6178903;23;20008;-83
2023/10/26 07:30:00;;;;;;;27.13;14.45;;;10.00;99.90;;;;;;6179521;23;20016;-83
2023/10/26 07:32:26;;;;;;;31.30;16.05;;;10.00;99.90;;;;;;6179313;23;20357;-83
2023/10/26 07:34:52;;;;;;;31.52;16.60;;;10.10;99.90;;;;;;6179170;23;20023;-83
2023/10/26 07:37:18;;;;;;;39.38;17.63;;;10.10;99.90;;;;;;6204332;23;20100;-83
2023/10/26 07:39:44;;;;;;;36.75;17.65;;;10.30;99.90;;;;;;6179585;23;20419;-83
2023/10/26 07:42:10;;;;;;;39.15;18.48;;;10.40;99.90;;;;;;6175806;23;20061;-83
2023/10/26 07:44:37;;;;;;;46.42;20.48;;;10.50;99.90;;;;;;6204623;23;20251;-83
2023/10/26 07:47:03;;;;;;;40.15;18.85;;;10.70;99.90;;;;;;6203470;23;20058;-83
2023/10/26 07:49:30;;;;;;;40.90;20.40;;;10.90;99.90;;;;;;6179766;23;20012;-83
2023/10/26 07:51:55;;;;;;;45.45;20.92;;;10.90;99.90;;;;;;6177644;23;20090;-83
2023/10/26 07:54:21;;;;;;;44.25;20.50;;;10.90;99.90;;;;;;6204455;23;20019;-83
2023/10/26 07:56:47;;;;;;;43.47;19.08;;;10.90;99.90;;;;;;6200516;23;20365;-83
2023/10/26 07:59:12;;;;;;;43.42;19.17;;;10.90;99.90;;;;;;6179046;23;20087;-83
2023/10/26 08:01:38;;;;;;;46.70;21.02;;;10.90;99.90;;;;;;6203448;23;20123;-83
2023/10/26 08:04:04;;;;;;;48.67;21.20;;;11.00;99.90;;;;;;6204825;23;20074;-83
2023/10/26 08:06:29;;;;;;;44.95;20.25;;;11.00;99.90;;;;;;6203275;23;20081;-82
2023/10/26 08:08:58;;;;;;;45.78;21.23;;;11.10;99.90;;;;;;6204262;23;20008;-83
2023/10/26 08:11:23;;;;;;;44.90;20.25;;;11.20;99.90;;;;;;6200756;23;20019;-83
2023/10/26 08:13:50;;;;;;;42.85;19.45;;;11.30;99.90;;;;;;6178688;23;20016;-83
2023/10/26 08:16:16;;;;;;;44.88;19.90;;;11.40;99.90;;;;;;6178393;23;20031;-83
2023/10/26 08:18:42;;;;;;;48.10;20.17;;;11.40;99.90;;;;;;6179027;23;20012;-83
2023/10/26 08:21:08;;;;;;;44.75;20.83;;;11.50;99.90;;;;;;6202994;23;20016;-83
2023/10/26 08:23:34;;;;;;;49.05;21.38;;;11.40;99.90;;;;;;6178512;23;20058;-83
2023/10/26 08:26:07;;;;;;;48.85;20.98;;;11.30;99.90;;;;;;6176097;23;20509;-82
2023/10/26 08:28:33;;;;;;;50.60;20.60;;;11.40;99.90;;;;;;6179205;23;20023;-83
2023/10/26 08:31:01;;;;;;;49.40;21.42;;;11.40;99.90;;;;;;6178448;23;20019;-83
2023/10/26 08:33:28;;;;;;;43.42;19.90;;;11.40;99.90;;;;;;6204073;23;20496;-83
2023/10/26 08:35:54;;;;;;;42.70;19.02;;;11.60;99.90;;;;;;6177911;23;20094;-83
2023/10/26 08:38:19;;;;;;;38.22;17.58;;;11.60;99.90;;;;;;6178862;23;20450;-83
2023/10/26 08:40:53;;;;;;;42.47;18.60;;;11.60;99.90;;;;;;6200912;23;20012;-83
2023/10/26 08:43:20;;;;;;;47.90;18.85;;;11.70;99.90;;;;;;6178280;23;20023;-83
2023/10/26 08:45:49;;;;;;;40.95;17.75;;;11.70;99.90;;;;;;6203541;23;20008;-83
2023/10/26 08:48:16;;;;;;;41.42;18.42;;;11.70;99.90;;;;;;6178864;23;20023;-83
2023/10/26 08:50:43;;;;;;;35.67;17.25;;;11.60;99.90;;;;;;6203167;23;20012;-83
2023/10/26 08:53:09;;;;;;;41.40;18.38;;;11.50;99.90;;;;;;6179077;23;20027;-83
2023/10/26 08:55:39;;;;;;;36.03;17.20;;;11.30;99.90;;;;;;6175367;23;20095;-83
2023/10/26 08:58:06;;;;;;;43.70;18.35;;;11.50;99.90;;;;;;6177897;23;20446;-83
2023/10/26 09:00:32;;;;;;;37.70;17.38;;;11.70;99.90;;;;;;6178493;23;20129;-83
2023/10/26 09:02:58;;;;;;;34.45;16.50;;;11.70;99.90;;;;;;6178796;23;20278;-83
2023/10/26 09:05:24;;;;;;;37.75;18.00;;;11.70;99.90;;;;;;6179953;23;20809;-83
2023/10/26 09:07:53;;;;;;;34.92;17.27;;;11.70;99.90;;;;;;6180663;23;20016;-83
2023/10/26 09:10:34;;;;;;;34.42;16.58;;;11.60;99.90;;;;;;6202379;23;20754;-83
2023/10/26 09:13:02;;;;;;;36.80;18.00;;;11.60;99.90;;;;;;6179973;23;20169;-83
2023/10/26 09:15:31;;;;;;;31.65;16.50;;;11.30;99.90;;;;;;6179887;23;20345;-83
2023/10/26 09:17:57;;;;;;;32.83;15.70;;;11.60;99.90;;;;;;6180468;23;20243;-83
2023/10/26 09:20:24;;;;;;;33.40;16.60;;;11.60;99.90;;;;;;6205092;23;20008;-83
2023/10/26 09:22:50;;;;;;;34.08;15.88;;;11.70;99.90;;;;;;6205067;23;20397;-83
2023/10/26 09:25:16;;;;;;;30.50;15.35;;;11.70;99.90;;;;;;6202500;23;20027;-83
2023/10/26 09:27:43;;;;;;;31.63;15.25;;;11.80;99.90;;;;;;6178911;23;20612;-83
2023/10/26 09:30:29;;;;;;;27.65;14.68;;;11.80;99.90;;;;;;6180335;23;20058;-82
2023/10/26 09:32:59;;;;;;;31.63;15.00;;;11.80;99.90;;;;;;6180539;23;20016;-83
2023/10/26 09:35:32;;;;;;;27.15;14.38;;;11.70;99.90;;;;;;6179920;23;20038;-83
2023/10/26 09:37:58;;;;;;;31.08;14.88;;;11.80;99.90;;;;;;6179694;23;20156;-83
2023/10/26 09:40:26;;;;;;;28.15;14.32;;;11.90;99.90;;;;;;6177083;23;20443;-83
2023/10/26 09:42:55;;;;;;;28.08;14.73;;;11.80;99.90;;;;;;6179880;23;20342;-83
2023/10/26 09:45:21;;;;;;;25.65;13.20;;;11.70;99.90;;;;;;6179682;23;20047;-83
2023/10/26 09:47:47;;;;;;;27.42;13.88;;;11.80;99.90;;;;;;6204361;23;20022;-83
2023/10/26 09:50:14;;;;;;;22.30;12.68;;;11.70;99.90;;;;;;6180007;23;20019;-83
2023/10/26 09:52:42;;;;;;;25.35;13.93;;;11.80;99.90;;;;;;6204901;23;20012;-83
2023/10/26 09:55:10;;;;;;;28.30;16.00;;;11.90;99.90;;;;;;6176961;23;20016;-83
2023/10/26 09:57:44;;;;;;;26.60;14.82;;;11.80;99.90;;;;;;6179587;23;20024;-83
2023/10/26 10:00:10;;;;;;;27.33;14.60;;;11.90;99.90;;;;;;6179588;23;20097;-83
2023/10/26 10:02:36;;;;;;;24.90;14.88;;;11.90;99.90;;;;;;6179256;23;20473;-84
2023/10/26 10:05:01;;;;;;;25.67;14.18;;;12.00;99.90;;;;;;6204869;23;20023;-83
2023/10/26 10:07:46;;;;;;;29.13;15.35;;;12.00;99.90;;;;;;6179888;23;20012;-83
2023/10/26 10:10:13;;;;;;;27.85;15.20;;;12.10;99.90;;;;;;6177071;23;20107;-83
2023/10/26 10:12:42;;;;;;;26.27;14.35;;;12.20;99.90;;;;;;6204682;23;20353;-82
2023/10/26 10:15:11;;;;;;;28.95;15.48;;;12.20;99.90;;;;;;6204707;23;20020;-83
2023/10/26 10:18:01;;;;;;;27.30;15.70;;;12.20;99.90;;;;;;6179052;23;20020;-83
2023/10/26 10:20:29;;;;;;;29.75;16.90;;;12.40;99.90;;;;;;6179277;23;20091;-83
2023/10/26 10:22:58;;;;;;;28.92;16.40;;;12.50;99.90;;;;;;6179534;23;20110;-83
2023/10/26 10:25:50;;;;;;;28.70;16.20;;;12.40;99.90;;;;;;6201972;23;20842;-83
2023/10/26 10:28:19;;;;;;;29.73;15.43;;;12.30;99.90;;;;;;6204252;23;20106;-82
2023/10/26 10:30:59;;;;;;;29.23;17.15;;;12.50;99.90;;;;;;6203821;23;20019;-83
2023/10/26 10:33:28;;;;;;;27.50;14.85;;;12.20;99.90;;;;;;6206891;23;20077;-83
2023/10/26 10:36:02;;;;;;;28.67;16.52;;;12.40;99.90;;;;;;6180440;23;20112;-83
2023/10/26 10:38:34;;;;;;;27.10;17.23;;;12.60;99.90;;;;;;6181737;23;20533;-83
2023/10/26 10:40:59;;;;;;;31.38;17.77;;;12.60;99.90;;;;;;6178620;23;20065;-83
2023/10/26 10:43:45;;;;;;;28.60;16.42;;;12.70;99.90;;;;;;6206344;23;20020;-83
2023/10/26 10:46:21;;;;;;;27.50;16.13;;;12.60;99.90;;;;;;6180942;23;20484;-83
2023/10/26 10:49:07;;;;;;;28.15;16.08;;;12.40;99.90;;;;;;6207404;23;20022;-83
2023/10/26 10:51:38;;;;;;;28.10;16.58;;;12.70;99.90;;;;;;6205833;23;20066;-83
2023/10/26 10:54:06;;;;;;;27.83;17.60;;;13.00;99.90;;;;;;6181546;23;20016;-83
2023/10/26 10:56:46;;;;;;;28.02;18.67;;;13.30;99.90;;;;;;6203397;23;20139;-83
2023/10/26 10:59:22;;;;;;;29.73;19.35;;;13.50;99.90;;;;;;6181385;23;20020;-83
2023/10/26 11:02:07;;;;;;;26.25;18.20;;;13.40;99.90;;;;;;6180700;23;20092;-83
2023/10/26 11:04:33;;;;;;;27.27;17.60;;;13.30;99.90;;;;;;6206649;23;20070;-83
2023/10/26 11:06:59;;;;;;;28.13;17.73;;;13.10;99.90;;;;;;6180615;23;20009;-83
2023/10/26 11:09:36;;;;;;;29.70;18.30;;;13.10;99.90;;;;;;6206914;23;20066;-84
2023/10/26 11:12:12;;;;;;;25.73;17.10;;;12.90;99.90;;;;;;6203129;23;20048;-83
2023/10/26 11:14:52;;;;;;;26.67;16.30;;;13.00;99.90;;;;;;6181432;23;20019;-83
2023/10/26 11:17:19;;;;;;;25.85;16.05;;;13.00;99.90;;;;;;6206457;23;20091;-83
2023/10/26 11:19:45;;;;;;;24.42;15.73;;;13.20;99.90;;;;;;6181567;23;20058;-83
2023/10/26 11:22:13;;;;;;;25.70;16.23;;;13.30;99.90;;;;;;6180023;23;20028;-82
2023/10/26 11:24:39;;;;;;;22.55;14.88;;;13.40;99.90;;;;;;6181893;23;20020;-83
2023/10/26 11:27:10;;;;;;;23.02;14.98;;;13.30;99.90;;;;;;6177618;23;20275;-83
2023/10/26 11:29:37;;;;;;;21.50;14.18;;;13.10;99.90;;;;;;6181491;23;20011;-83
2023/10/26 11:32:03;;;;;;;24.08;15.82;;;13.00;99.90;;;;;;6181119;23;20480;-83
2023/10/26 11:34:28;;;;;;;20.08;14.95;;;13.00;99.90;;;;;;6206324;23;20012;-83
2023/10/26 11:36:56;;;;;;;23.70;16.42;;;13.10;99.90;;;;;;6181108;23;20012;-83
2023/10/26 11:39:21;;;;;;;21.58;15.05;;;12.80;99.90;;;;;;6180986;23;20012;-83
2023/10/26 11:41:55;;;;;;;23.38;16.20;;;12.90;99.90;;;;;;6177642;23;20107;-83
2023/10/26 11:44:28;;;;;;;25.95;16.88;;;13.30;99.90;;;;;;6206460;23;20086;-83
2023/10/26 11:46:58;;;;;;;23.05;16.67;;;13.50;99.90;;;;;;6180883;23;20027;-83
2023/10/26 11:49:39;;;;;;;23.98;16.58;;;13.80;99.90;;;;;;6181771;23;20015;-83
2023/10/26 11:52:06;;;;;;;21.42;16.23;;;13.40;99.90;;;;;;6179949;23;20012;-83
2023/10/26 11:54:32;;;;;;;24.10;17.35;;;13.60;99.90;;;;;;6206331;23;20424;-83
2023/10/26 11:56:57;;;;;;;28.30;17.52;;;13.50;99.90;;;;;;6177425;23;20362;-83
2023/10/26 11:59:23;;;;;;;26.15;18.27;;;13.40;99.90;;;;;;6181691;23;20019;-83
2023/10/26 12:01:49;;;;;;;27.13;18.33;;;13.30;99.90;;;;;;6205243;23;20016;-83
2023/10/26 12:04:15;;;;;;;31.05;20.23;;;13.10;99.90;;;;;;6180690;23;20375;-83
2023/10/26 12:06:41;;;;;;;30.63;17.08;;;12.90;99.90;;;;;;6205071;23;20044;-83
2023/10/26 12:09:06;;;;;;;27.13;18.02;;;12.70;99.90;;;;;;6181593;23;20027;-83
2023/10/26 12:11:33;;;;;;;29.67;19.20;;;13.00;99.90;;;;;;6177216;23;20012;-83
2023/10/26 12:13:58;;;;;;;30.65;19.45;;;13.20;99.90;;;;;;6180766;23;20013;-83
2023/10/26 12:16:24;;;;;;;33.30;20.42;;;13.10;99.90;;;;;;6179910;23;20016;-83
2023/10/26 12:18:51;;;;;;;30.02;19.58;;;12.00;99.90;;;;;;6185287;23;20337;-83
2023/10/26 12:21:17;;;;;;;31.05;19.58;;;11.90;99.90;;;;;;6187109;23;20051;-83
2023/10/26 12:23:43;;;;;;;31.27;20.15;;;12.20;99.90;;;;;;6213275;23;20020;-83
2023/10/26 12:26:09;;;;;;;31.98;19.95;;;12.20;99.90;;;;;;6211208;23;20066;-83
2023/10/26 12:28:35;;;;;;;34.20;21.13;;;12.40;99.90;;;;;;6213446;23;20096;-82